createdAt,value
2022-09-23T00:02:47.831Z,100.00
2022-09-23T00:12:52.372Z,100.00
2022-09-23T00:22:55.272Z,100.00
2022-09-23T00:33:00.352Z,100.00
2022-09-23T00:43:03.304Z,100.00
2022-09-23T00:53:12.318Z,100.00
2022-09-23T01:03:15.648Z,100.00
2022-09-23T01:13:26.468Z,100.00
2022-09-23T01:24:04.501Z,100.00
2022-09-23T01:34:15.166Z,100.00
2022-09-23T01:44:22.997Z,100.00
2022-09-23T01:54:32.769Z,100.00
2022-09-23T02:04:41.326Z,100.00
2022-09-23T02:14:50.065Z,100.00
2022-09-23T02:24:54.779Z,100.00
2022-09-23T02:35:05.810Z,100.00
2022-09-23T02:45:09.383Z,100.00
2022-09-23T02:55:17.876Z,100.00
2022-09-23T03:05:25.838Z,100.00
2022-09-23T03:15:36.914Z,100.00
2022-09-23T03:25:44.750Z,100.00
2022-09-23T03:36:11.862Z,100.00
2022-09-23T03:46:18.369Z,100.00
2022-09-23T03:56:22.720Z,100.00
2022-09-23T04:06:25.801Z,100.00
2022-09-23T04:16:30.246Z,100.00
2022-09-23T04:26:34.779Z,100.00
2022-09-23T04:36:39.102Z,100.00
2022-09-23T04:46:42.609Z,100.00
2022-09-23T04:56:46.998Z,100.00
2022-09-23T05:06:49.941Z,100.00
2022-09-23T05:16:54.350Z,100.00
2022-09-23T05:26:57.282Z,100.00
2022-09-23T05:37:01.611Z,100.00
2022-09-23T05:47:04.823Z,100.00
2022-09-23T05:57:09.330Z,100.00
2022-09-23T06:07:12.515Z,100.00
2022-09-23T06:17:16.939Z,100.00
2022-09-23T06:27:19.962Z,100.00
2022-09-23T06:37:24.510Z,100.00
2022-09-23T06:47:27.555Z,100.00
2022-09-23T06:57:34.134Z,100.00
2022-09-23T07:07:38.302Z,98.95
2022-09-23T07:17:43.966Z,96.53
2022-09-23T07:27:48.917Z,97.06
2022-09-23T07:37:53.756Z,96.48
2022-09-23T07:47:57.184Z,94.06
2022-09-23T07:58:01.914Z,91.18
2022-09-23T08:08:07.186Z,88.81
2022-09-23T08:18:11.542Z,87.94
2022-09-23T08:28:16.254Z,86.89
2022-09-23T08:38:20.779Z,85.73
2022-09-23T08:48:30.331Z,83.03
2022-09-23T08:58:44.543Z,81.31
2022-09-23T09:08:55.548Z,80.04
2022-09-23T09:19:01.450Z,76.74
2022-09-23T09:29:23.809Z,74.54
2022-09-23T09:39:35.170Z,72.23
2022-09-23T09:49:47.217Z,69.70
2022-09-23T09:59:52.227Z,67.81
2022-09-23T10:10:01.835Z,66.55
2022-09-23T10:20:17.475Z,65.23
2022-09-23T10:30:23.449Z,62.50
2022-09-23T10:40:49.267Z,63.98
2022-09-23T10:51:00.599Z,63.35
2022-09-23T11:01:20.088Z,60.38
2022-09-23T11:11:36.414Z,59.92
2022-09-23T11:21:57.340Z,58.84
2022-09-23T11:32:12.425Z,58.65
2022-09-23T11:42:22.670Z,57.81
2022-09-23T11:52:30.687Z,56.86
2022-09-23T12:03:04.955Z,55.23
2022-09-23T12:13:22.707Z,56.40
2022-09-23T12:23:52.785Z,55.61
2022-09-23T12:33:56.308Z,56.60
2022-09-23T12:44:25.549Z,57.42
2022-09-23T12:54:28.808Z,57.40
2022-09-23T13:05:01.316Z,58.81
2022-09-23T13:15:21.004Z,57.32
2022-09-23T13:25:34.418Z,59.18
2022-09-23T13:35:39.319Z,59.41
2022-09-23T13:45:46.175Z,61.32
2022-09-23T13:56:01.597Z,62.79
2022-09-23T14:06:11.178Z,62.84
2022-09-23T14:16:17.173Z,65.16
2022-09-23T14:26:22.474Z,66.50
2022-09-23T14:36:44.049Z,67.24
2022-09-23T14:46:57.501Z,67.91
2022-09-23T14:57:01.482Z,69.57
2022-09-23T15:07:15.930Z,70.87
2022-09-23T15:17:26.097Z,74.45
2022-09-23T15:27:33.556Z,77.76
2022-09-23T15:37:36.878Z,80.13
2022-09-23T15:47:41.290Z,81.02
2022-09-23T15:57:44.185Z,81.25
2022-09-23T16:07:49.430Z,81.78
2022-09-23T16:17:52.922Z,82.25
2022-09-23T16:28:00.154Z,82.89
2022-09-23T16:38:07.830Z,83.62
2022-09-23T16:48:19.987Z,85.36
2022-09-23T16:58:23.135Z,85.33
2022-09-23T17:08:27.597Z,86.88
2022-09-23T17:18:31.536Z,88.00
2022-09-23T17:28:36.245Z,88.54
2022-09-23T17:38:40.242Z,89.61
2022-09-23T17:48:46.247Z,90.10
2022-09-23T17:58:50.609Z,90.87
2022-09-23T18:08:56.437Z,92.13
2022-09-23T18:19:01.036Z,93.93
2022-09-23T18:29:05.744Z,95.73
2022-09-23T18:39:08.992Z,97.19
2022-09-23T18:49:30.942Z,99.92
2022-09-23T18:59:33.970Z,100.00
2022-09-23T19:09:38.568Z,100.00
2022-09-23T19:19:41.771Z,100.00
2022-09-23T19:29:47.596Z,100.00
2022-09-23T19:39:50.610Z,100.00
2022-09-23T19:49:55.028Z,100.00
2022-09-23T19:59:58.196Z,100.00
2022-09-23T20:10:02.627Z,100.00
2022-09-23T20:20:06.009Z,100.00
2022-09-23T20:30:12.036Z,100.00
2022-09-23T20:40:15.233Z,100.00
2022-09-23T20:50:19.819Z,100.00
2022-09-23T21:00:23.000Z,100.00
2022-09-23T21:10:27.354Z,100.00
2022-09-23T21:20:30.585Z,100.00
2022-09-23T21:30:35.262Z,100.00
2022-09-23T21:40:55.930Z,100.00
2022-09-23T21:51:02.248Z,100.00
2022-09-23T22:01:08.982Z,100.00
2022-09-23T22:11:35.327Z,100.00
2022-09-23T22:21:40.631Z,100.00
2022-09-23T22:32:02.771Z,100.00
2022-09-23T22:42:05.774Z,100.00
2022-09-23T22:52:11.380Z,100.00
2022-09-23T23:02:15.466Z,100.00
2022-09-23T23:12:21.062Z,100.00
2022-09-23T23:22:28.427Z,100.00
2022-09-23T23:32:32.861Z,100.00
2022-09-23T23:42:35.818Z,100.00
2022-09-23T23:52:40.229Z,100.00
